createdAt,value
2023-01-06T00:00:30.768Z,8.80
2023-01-06T00:02:57.796Z,8.80
2023-01-06T00:05:24.860Z,8.70
2023-01-06T00:07:51.942Z,8.70
2023-01-06T00:10:19.160Z,8.70
2023-01-06T00:12:46.404Z,8.70
2023-01-06T00:15:13.518Z,8.70
2023-01-06T00:17:40.613Z,8.70
2023-01-06T00:20:07.904Z,8.70
2023-01-06T00:22:34.900Z,8.70
2023-01-06T00:25:01.859Z,8.70
2023-01-06T00:27:30.574Z,8.70
2023-01-06T00:29:57.586Z,8.70
2023-01-06T00:32:24.614Z,8.70
2023-01-06T00:34:51.599Z,8.70
2023-01-06T00:37:18.571Z,8.70
2023-01-06T00:39:45.569Z,8.70
2023-01-06T00:42:12.858Z,8.70
2023-01-06T00:44:39.956Z,8.70
2023-01-06T00:47:07.732Z,8.70
2023-01-06T00:49:34.909Z,8.70
2023-01-06T00:52:01.999Z,8.70
2023-01-06T00:54:29.737Z,8.70
2023-01-06T00:56:56.849Z,8.60
2023-01-06T00:59:24.201Z,8.60
2023-01-06T01:01:52.390Z,8.60
2023-01-06T01:04:19.529Z,8.50
2023-01-06T01:06:46.922Z,8.50
2023-01-06T01:09:21.556Z,8.50
2023-01-06T01:12:07.384Z,8.50
2023-01-06T01:14:34.418Z,8.50
2023-01-06T01:17:02.331Z,8.50
2023-01-06T01:19:29.652Z,8.50
2023-01-06T01:21:56.688Z,8.50
2023-01-06T01:24:23.735Z,8.50
2023-01-06T01:26:50.772Z,8.50
2023-01-06T01:29:18.102Z,8.40
2023-01-06T01:31:45.184Z,8.40
2023-01-06T01:34:13.285Z,8.30
2023-01-06T01:36:40.591Z,8.30
2023-01-06T01:39:07.690Z,8.30
2023-01-06T01:41:34.691Z,8.20
2023-01-06T01:44:02.963Z,8.20
2023-01-06T01:46:37.907Z,8.20
2023-01-06T01:49:06.368Z,8.10
2023-01-06T01:51:35.283Z,8.10
2023-01-06T01:54:02.581Z,8.10
2023-01-06T01:56:30.501Z,8.10
2023-01-06T01:59:03.121Z,8.10
2023-01-06T02:01:30.207Z,8.10
2023-01-06T02:03:57.234Z,8.10
2023-01-06T02:06:24.624Z,8.10
2023-01-06T02:08:57.087Z,8.00
2023-01-06T02:11:24.064Z,8.00
2023-01-06T02:13:52.077Z,8.00
2023-01-06T02:16:44.089Z,7.90
2023-01-06T02:19:19.487Z,7.90
2023-01-06T02:22:05.527Z,7.80
2023-01-06T02:24:34.018Z,7.80
2023-01-06T02:27:21.305Z,7.80
2023-01-06T02:30:00.585Z,7.80
2023-01-06T02:32:33.694Z,7.70
2023-01-06T02:35:09.905Z,7.70
2023-01-06T02:38:13.826Z,7.60
2023-01-06T02:40:48.314Z,7.60
2023-01-06T02:43:21.257Z,7.60
2023-01-06T02:46:08.128Z,7.50
2023-01-06T02:48:39.638Z,7.50
2023-01-06T02:51:09.112Z,7.40
2023-01-06T02:53:36.131Z,7.40
2023-01-06T02:56:03.561Z,7.40
2023-01-06T02:58:30.659Z,7.40
2023-01-06T03:01:02.816Z,7.40
2023-01-06T03:03:30.530Z,7.30
2023-01-06T03:06:05.177Z,7.30
2023-01-06T03:08:32.686Z,7.20
2023-01-06T03:10:59.799Z,7.20
2023-01-06T03:13:33.486Z,7.10
2023-01-06T03:16:00.643Z,7.10
2023-01-06T03:18:27.711Z,7.00
2023-01-06T03:20:54.865Z,7.00
2023-01-06T03:23:22.440Z,6.90
2023-01-06T03:25:49.809Z,6.90
2023-01-06T03:28:16.887Z,6.90
2023-01-06T03:30:57.123Z,6.90
2023-01-06T03:33:56.651Z,6.80
2023-01-06T03:36:28.241Z,6.80
2023-01-06T03:39:09.215Z,6.80
2023-01-06T03:41:55.694Z,6.70
2023-01-06T03:44:36.422Z,6.70
2023-01-06T03:47:05.340Z,6.70
2023-01-06T03:49:33.415Z,6.60
2023-01-06T03:52:04.556Z,6.60
2023-01-06T03:54:40.664Z,6.60
2023-01-06T03:57:22.167Z,6.60
2023-01-06T03:59:50.697Z,6.50
2023-01-06T04:02:19.048Z,6.50
2023-01-06T04:05:00.111Z,6.50
2023-01-06T04:07:27.476Z,6.50
2023-01-06T04:09:54.480Z,6.50
2023-01-06T04:12:39.967Z,6.50
2023-01-06T04:15:23.582Z,6.50
2023-01-06T04:17:51.666Z,6.40
2023-01-06T04:20:29.650Z,6.40
2023-01-06T04:23:11.618Z,6.40
2023-01-06T04:25:40.396Z,6.30
2023-01-06T04:28:14.314Z,6.30
2023-01-06T04:30:42.671Z,6.20
2023-01-06T04:33:10.397Z,6.20
2023-01-06T04:35:39.484Z,6.20
2023-01-06T04:38:06.500Z,6.20
2023-01-06T04:40:33.473Z,6.20
2023-01-06T04:43:06.730Z,6.20
2023-01-06T04:45:34.461Z,6.20
2023-01-06T04:48:01.517Z,6.20
2023-01-06T04:50:28.786Z,6.20
2023-01-06T04:52:55.829Z,6.10
2023-01-06T04:55:22.990Z,6.10
2023-01-06T04:57:50.115Z,6.10
2023-01-06T05:00:17.177Z,6.10
2023-01-06T05:02:44.270Z,6.10
2023-01-06T05:05:11.456Z,6.10
2023-01-06T05:07:38.442Z,6.00
2023-01-06T05:10:05.831Z,6.00
2023-01-06T05:12:33.049Z,5.90
2023-01-06T05:15:00.132Z,5.90
2023-01-06T05:17:27.272Z,5.90
2023-01-06T05:19:54.371Z,5.90
2023-01-06T05:22:21.460Z,5.90
2023-01-06T05:24:48.447Z,5.80
2023-01-06T05:27:15.421Z,5.80
2023-01-06T05:29:42.475Z,5.70
2023-01-06T05:32:09.438Z,5.70
2023-01-06T05:34:36.469Z,5.60
2023-01-06T05:37:03.460Z,5.60
2023-01-06T05:39:30.428Z,5.60
2023-01-06T05:41:57.399Z,5.60
2023-01-06T05:44:24.455Z,5.50
2023-01-06T05:46:51.423Z,5.50
2023-01-06T05:49:18.377Z,5.50
2023-01-06T05:51:45.559Z,5.50
2023-01-06T05:54:13.579Z,5.50
2023-01-06T05:56:40.623Z,5.50
2023-01-06T05:59:07.597Z,5.50
2023-01-06T06:01:34.684Z,5.60
2023-01-06T06:04:01.822Z,5.50
2023-01-06T06:06:29.557Z,5.50
2023-01-06T06:08:56.995Z,5.50
2023-01-06T06:11:24.051Z,5.50
2023-01-06T06:13:51.991Z,5.50
2023-01-06T06:16:19.655Z,5.60
2023-01-06T06:18:50.575Z,5.60
2023-01-06T06:21:18.525Z,5.60
2023-01-06T06:23:45.497Z,5.60
2023-01-06T06:26:12.480Z,5.60
2023-01-06T06:28:39.629Z,5.60
2023-01-06T06:31:13.204Z,5.60
2023-01-06T06:33:40.353Z,5.50
2023-01-06T06:36:11.664Z,5.50
2023-01-06T06:38:38.825Z,5.50
2023-01-06T06:41:05.799Z,5.50
2023-01-06T06:43:32.931Z,5.50
2023-01-06T06:45:59.990Z,5.50
2023-01-06T06:48:27.979Z,5.50
2023-01-06T06:50:58.906Z,5.40
2023-01-06T06:53:26.270Z,5.40
2023-01-06T06:55:53.246Z,5.40
2023-01-06T06:58:20.285Z,5.40
2023-01-06T07:00:47.341Z,5.50
2023-01-06T07:03:14.330Z,5.50
2023-01-06T07:05:41.868Z,5.50
2023-01-06T07:08:08.835Z,5.50
2023-01-06T07:10:35.822Z,5.50
2023-01-06T07:13:04.383Z,5.50
2023-01-06T07:15:32.216Z,5.50
2023-01-06T07:17:59.869Z,5.60
2023-01-06T07:20:26.840Z,5.60
2023-01-06T07:22:53.799Z,5.60
2023-01-06T07:25:20.817Z,5.60
2023-01-06T07:27:47.818Z,5.60
2023-01-06T07:30:16.068Z,5.60
2023-01-06T07:32:43.027Z,5.60
2023-01-06T07:35:10.274Z,5.70
2023-01-06T07:37:37.497Z,5.70
2023-01-06T07:40:04.743Z,5.80
2023-01-06T07:42:31.723Z,5.70
2023-01-06T07:44:58.702Z,5.80
2023-01-06T07:47:25.709Z,5.80
2023-01-06T07:49:52.720Z,5.80
2023-01-06T07:52:19.755Z,5.80
2023-01-06T07:54:46.709Z,5.90
2023-01-06T07:57:13.699Z,5.90
2023-01-06T07:59:40.728Z,6.00
2023-01-06T08:02:09.418Z,6.00
2023-01-06T08:04:36.469Z,6.00
2023-01-06T08:07:03.568Z,6.10
2023-01-06T08:09:30.610Z,6.10
2023-01-06T08:11:59.507Z,6.20
2023-01-06T08:14:26.589Z,6.20
2023-01-06T08:16:53.558Z,6.20
2023-01-06T08:19:20.612Z,6.20
2023-01-06T08:21:47.594Z,6.20
2023-01-06T08:24:14.564Z,6.20
2023-01-06T08:26:41.530Z,6.20
2023-01-06T08:29:08.596Z,6.20
2023-01-06T08:31:35.674Z,6.10
2023-01-06T08:34:02.682Z,6.10
2023-01-06T08:36:29.726Z,6.10
2023-01-06T08:38:56.779Z,6.10
2023-01-06T08:41:23.744Z,6.00
2023-01-06T08:43:50.823Z,6.10
2023-01-06T08:46:18.630Z,6.10
2023-01-06T08:48:46.056Z,6.10
2023-01-06T08:51:14.394Z,6.20
2023-01-06T08:53:41.426Z,6.20
2023-01-06T08:56:12.250Z,6.30
2023-01-06T08:58:39.516Z,6.30
2023-01-06T09:01:06.558Z,6.40
2023-01-06T09:03:33.548Z,6.40
2023-01-06T09:06:00.526Z,6.50
2023-01-06T09:08:27.620Z,6.50
2023-01-06T09:10:54.593Z,6.60
2023-01-06T09:13:21.554Z,6.60
2023-01-06T09:15:48.974Z,6.70
2023-01-06T09:18:16.075Z,6.70
2023-01-06T09:20:43.102Z,6.80
2023-01-06T09:23:10.064Z,6.80
2023-01-06T09:25:37.093Z,6.90
2023-01-06T09:28:04.186Z,7.00
2023-01-06T09:30:31.164Z,7.00
2023-01-06T09:32:58.252Z,7.00
2023-01-06T09:35:25.214Z,7.10
2023-01-06T09:37:52.254Z,7.20
2023-01-06T09:40:19.620Z,7.20
2023-01-06T09:42:56.490Z,7.20
2023-01-06T09:45:35.177Z,7.30
2023-01-06T09:48:02.359Z,7.30
2023-01-06T09:50:34.631Z,7.40
2023-01-06T09:53:06.446Z,7.40
2023-01-06T09:55:43.548Z,7.50
2023-01-06T09:58:12.239Z,7.50
2023-01-06T10:00:52.733Z,7.60
2023-01-06T10:03:20.795Z,7.60
2023-01-06T10:05:59.180Z,7.70
2023-01-06T10:08:44.742Z,7.70
2023-01-06T10:11:13.016Z,7.70
2023-01-06T10:13:43.048Z,7.80
2023-01-06T10:16:13.056Z,7.80
2023-01-06T10:18:43.199Z,7.90
2023-01-06T10:21:13.921Z,8.00
2023-01-06T10:23:44.472Z,8.00
2023-01-06T10:26:12.540Z,8.10
2023-01-06T10:28:43.453Z,8.10
2023-01-06T10:31:32.916Z,8.10
2023-01-06T10:34:00.083Z,8.20
2023-01-06T10:36:30.467Z,8.20
2023-01-06T10:38:57.440Z,8.30
2023-01-06T10:41:36.596Z,8.40
2023-01-06T10:44:03.627Z,8.40
2023-01-06T10:46:34.746Z,8.40
2023-01-06T10:49:05.591Z,8.40
2023-01-06T10:51:34.636Z,8.50
2023-01-06T10:54:07.197Z,8.50
2023-01-06T10:56:34.620Z,8.50
2023-01-06T10:59:08.933Z,8.60
2023-01-06T11:01:38.243Z,8.60
2023-01-06T11:04:10.061Z,8.70
2023-01-06T11:06:38.704Z,8.70
2023-01-06T11:09:28.966Z,8.80
2023-01-06T11:11:56.822Z,8.90
2023-01-06T11:14:25.426Z,8.90
2023-01-06T11:17:02.562Z,8.90
2023-01-06T11:19:36.611Z,9.00
2023-01-06T11:22:04.118Z,9.00
2023-01-06T11:24:31.148Z,9.00
2023-01-06T11:27:02.220Z,9.00
2023-01-06T11:29:29.247Z,9.10
2023-01-06T11:31:56.973Z,9.10
2023-01-06T11:34:24.798Z,9.10
2023-01-06T11:36:51.785Z,9.00
2023-01-06T11:39:37.018Z,9.00
2023-01-06T11:42:05.065Z,9.00
2023-01-06T11:44:36.099Z,9.00
2023-01-06T11:47:08.514Z,9.00
2023-01-06T11:49:55.759Z,8.90
2023-01-06T11:52:24.462Z,8.90
2023-01-06T11:55:00.699Z,8.90
2023-01-06T11:57:35.787Z,8.90
2023-01-06T12:00:05.799Z,8.90
2023-01-06T12:02:50.090Z,8.90
2023-01-06T12:05:37.700Z,9.00
2023-01-06T12:08:06.908Z,9.00
2023-01-06T12:10:33.959Z,9.00
2023-01-06T12:13:00.961Z,9.00
2023-01-06T12:15:28.858Z,9.10
2023-01-06T12:17:58.334Z,9.10
2023-01-06T12:20:26.729Z,9.10
2023-01-06T12:22:54.848Z,9.20
2023-01-06T12:25:22.955Z,9.20
2023-01-06T12:28:01.103Z,9.30
2023-01-06T12:30:35.634Z,9.30
2023-01-06T12:33:09.394Z,9.40
2023-01-06T12:35:36.438Z,9.40
2023-01-06T12:38:08.219Z,9.40
2023-01-06T12:40:36.749Z,9.40
2023-01-06T12:43:05.371Z,9.40
2023-01-06T12:45:57.329Z,9.40
2023-01-06T12:48:37.121Z,9.50
2023-01-06T12:51:06.255Z,9.50
2023-01-06T12:53:35.579Z,9.50
2023-01-06T12:56:05.789Z,9.60
2023-01-06T12:58:38.887Z,9.60
2023-01-06T13:01:07.924Z,9.60
2023-01-06T13:03:47.400Z,9.60
2023-01-06T13:06:17.497Z,9.60
2023-01-06T13:08:53.759Z,9.60
2023-01-06T13:11:32.936Z,9.60
2023-01-06T13:14:02.732Z,9.60
2023-01-06T13:16:37.163Z,9.60
2023-01-06T13:19:09.100Z,9.60
2023-01-06T13:21:36.096Z,9.60
2023-01-06T13:24:03.086Z,9.60
2023-01-06T13:26:48.568Z,9.60
2023-01-06T13:29:38.889Z,9.60
2023-01-06T13:32:15.061Z,9.60
2023-01-06T13:34:48.162Z,9.60
2023-01-06T13:37:15.131Z,9.60
2023-01-06T13:39:46.040Z,9.60
2023-01-06T13:42:17.065Z,9.60
2023-01-06T13:44:44.083Z,9.60
2023-01-06T13:47:15.226Z,9.70
2023-01-06T13:49:42.363Z,9.60
2023-01-06T13:52:13.829Z,9.60
2023-01-06T13:54:40.848Z,9.60
2023-01-06T13:57:20.211Z,9.60
2023-01-06T13:59:53.982Z,9.60
2023-01-06T14:02:30.426Z,9.50
2023-01-06T14:04:57.917Z,9.50
2023-01-06T14:07:32.102Z,9.50
2023-01-06T14:09:59.069Z,9.50
2023-01-06T14:12:26.050Z,9.40
2023-01-06T14:15:18.439Z,9.40
2023-01-06T14:17:47.027Z,9.40
2023-01-06T14:20:32.880Z,9.30
2023-01-06T14:23:02.993Z,9.30
2023-01-06T14:25:30.113Z,9.30
2023-01-06T14:28:00.139Z,9.20
2023-01-06T14:30:33.942Z,9.30
2023-01-06T14:33:02.335Z,9.20
2023-01-06T14:35:30.932Z,9.20
2023-01-06T14:37:59.331Z,9.20
2023-01-06T14:40:30.266Z,9.20
2023-01-06T14:42:57.695Z,9.10
2023-01-06T14:45:25.436Z,9.10
2023-01-06T14:48:02.503Z,9.10
2023-01-06T14:50:38.463Z,9.10
2023-01-06T14:53:09.826Z,9.10
2023-01-06T14:55:38.726Z,9.10
2023-01-06T14:58:05.690Z,9.10
2023-01-06T15:00:33.446Z,9.10
2023-01-06T15:03:02.333Z,9.10
2023-01-06T15:05:33.092Z,9.10
2023-01-06T15:08:01.158Z,9.10
2023-01-06T15:10:28.910Z,9.10
2023-01-06T15:12:56.996Z,9.10
2023-01-06T15:15:28.206Z,9.10
2023-01-06T15:17:55.586Z,9.10
2023-01-06T15:20:27.656Z,9.10
2023-01-06T15:22:54.676Z,9.00
2023-01-06T15:25:22.446Z,9.00
2023-01-06T15:27:49.566Z,9.00
2023-01-06T15:30:17.396Z,9.00
2023-01-06T15:32:44.367Z,9.00
2023-01-06T15:35:16.314Z,9.00
2023-01-06T15:37:43.309Z,9.00
2023-01-06T15:40:10.687Z,9.00
2023-01-06T15:42:37.812Z,9.00
2023-01-06T15:45:06.986Z,8.90
2023-01-06T15:47:34.775Z,8.90
2023-01-06T15:50:02.814Z,8.90
2023-01-06T15:52:30.833Z,8.90
2023-01-06T15:54:58.633Z,8.90
2023-01-06T15:57:25.872Z,8.90
2023-01-06T15:59:53.840Z,8.80
2023-01-06T16:02:21.154Z,8.90
2023-01-06T16:04:49.064Z,8.90
2023-01-06T16:07:30.090Z,8.90
2023-01-06T16:09:57.127Z,8.80
2023-01-06T16:12:24.147Z,8.80
2023-01-06T16:14:51.204Z,8.80
2023-01-06T16:17:34.695Z,8.80
2023-01-06T16:20:05.847Z,8.80
2023-01-06T16:22:34.026Z,8.80
2023-01-06T16:25:21.251Z,8.80
2023-01-06T16:27:51.791Z,8.80
2023-01-06T16:30:22.231Z,8.70
2023-01-06T16:32:52.537Z,8.80
2023-01-06T16:35:20.961Z,8.70
2023-01-06T16:37:47.950Z,8.70
2023-01-06T16:40:15.547Z,8.70
2023-01-06T16:42:42.932Z,8.70
2023-01-06T16:45:14.229Z,8.70
2023-01-06T16:47:41.459Z,8.60
2023-01-06T16:50:11.561Z,8.60
2023-01-06T16:52:38.568Z,8.70
2023-01-06T16:55:11.183Z,8.60
2023-01-06T16:57:38.173Z,8.60
2023-01-06T17:00:05.407Z,8.60
2023-01-06T17:02:32.448Z,8.60
2023-01-06T17:04:59.504Z,8.60
2023-01-06T17:07:26.591Z,8.60
2023-01-06T17:09:53.614Z,8.60
2023-01-06T17:12:39.240Z,8.60
2023-01-06T17:15:06.517Z,8.60
2023-01-06T17:17:33.515Z,8.60
2023-01-06T17:20:02.311Z,8.60
2023-01-06T17:22:29.668Z,8.60
2023-01-06T17:24:59.276Z,8.60
2023-01-06T17:27:26.915Z,8.60
2023-01-06T17:29:54.261Z,8.60
2023-01-06T17:32:22.164Z,8.60
2023-01-06T17:34:49.323Z,8.60
2023-01-06T17:37:21.978Z,8.50
2023-01-06T17:39:48.958Z,8.50
2023-01-06T17:42:15.904Z,8.60
2023-01-06T17:44:51.640Z,8.50
2023-01-06T17:47:20.145Z,8.60
2023-01-06T17:49:51.327Z,8.50
2023-01-06T17:52:19.158Z,8.50
2023-01-06T17:55:15.545Z,8.50
2023-01-06T17:57:43.606Z,8.50
2023-01-06T18:00:19.708Z,8.50
2023-01-06T18:02:47.177Z,8.50
2023-01-06T18:05:26.662Z,8.50
2023-01-06T18:08:14.090Z,8.50
2023-01-06T18:10:50.941Z,8.50
2023-01-06T18:13:24.721Z,8.50
2023-01-06T18:15:58.199Z,8.40
2023-01-06T18:18:33.070Z,8.40
2023-01-06T18:21:15.871Z,8.40
2023-01-06T18:23:44.267Z,8.40
2023-01-06T18:26:26.558Z,8.50
2023-01-06T18:29:00.923Z,8.40
2023-01-06T18:31:29.553Z,8.50
2023-01-06T18:33:56.559Z,8.40
2023-01-06T18:36:23.522Z,8.40
2023-01-06T18:38:50.509Z,8.40
2023-01-06T18:41:17.469Z,8.40
2023-01-06T18:43:44.544Z,8.40
2023-01-06T18:46:15.255Z,8.40
2023-01-06T18:48:42.480Z,8.40
2023-01-06T18:51:19.289Z,8.40
2023-01-06T18:53:47.220Z,8.40
2023-01-06T18:56:15.303Z,8.40
2023-01-06T18:58:52.633Z,8.40
2023-01-06T19:01:23.819Z,8.40
2023-01-06T19:04:00.144Z,8.40
2023-01-06T19:06:29.697Z,8.40
2023-01-06T19:08:56.739Z,8.30
2023-01-06T19:11:24.534Z,8.30
2023-01-06T19:13:53.298Z,8.40
2023-01-06T19:16:29.465Z,8.40
2023-01-06T19:19:05.964Z,8.30
2023-01-06T19:21:33.333Z,8.40
2023-01-06T19:24:00.847Z,8.30
2023-01-06T19:26:30.337Z,8.30
2023-01-06T19:29:02.164Z,8.30
2023-01-06T19:31:30.555Z,8.30
2023-01-06T19:33:58.831Z,8.30
2023-01-06T19:36:25.799Z,8.30
2023-01-06T19:38:52.819Z,8.30
2023-01-06T19:41:30.375Z,8.30
2023-01-06T19:43:58.907Z,8.30
2023-01-06T19:46:31.277Z,8.30
2023-01-06T19:48:59.308Z,8.20
2023-01-06T19:51:35.631Z,8.20
2023-01-06T19:54:11.763Z,8.20
2023-01-06T19:56:40.005Z,8.20
2023-01-06T19:59:12.902Z,8.20
2023-01-06T20:01:40.074Z,8.20
2023-01-06T20:04:14.491Z,8.20
2023-01-06T20:06:41.503Z,8.20
2023-01-06T20:09:08.456Z,8.10
2023-01-06T20:11:35.432Z,8.20
2023-01-06T20:14:02.410Z,8.20
2023-01-06T20:16:29.461Z,8.10
2023-01-06T20:18:56.447Z,8.10
2023-01-06T20:21:23.470Z,8.10
2023-01-06T20:23:50.557Z,8.20
2023-01-06T20:26:17.568Z,8.10
2023-01-06T20:28:44.639Z,8.10
2023-01-06T20:31:11.746Z,8.10
2023-01-06T20:33:38.714Z,8.10
2023-01-06T20:36:07.781Z,8.10
2023-01-06T20:38:34.968Z,8.10
2023-01-06T20:41:01.954Z,8.10
2023-01-06T20:43:28.977Z,8.10
2023-01-06T20:45:56.102Z,8.10
2023-01-06T20:48:23.132Z,8.10
2023-01-06T20:50:50.720Z,8.10
2023-01-06T20:53:18.212Z,8.10
2023-01-06T20:55:45.188Z,8.10
2023-01-06T20:58:12.160Z,8.10
2023-01-06T21:00:39.144Z,8.10
2023-01-06T21:03:06.341Z,8.10
2023-01-06T21:05:34.039Z,8.10
2023-01-06T21:08:03.055Z,8.10
2023-01-06T21:10:30.017Z,8.10
2023-01-06T21:12:58.249Z,8.10
2023-01-06T21:15:28.323Z,8.10
2023-01-06T21:17:55.324Z,8.10
2023-01-06T21:20:22.287Z,8.10
2023-01-06T21:22:49.275Z,8.00
2023-01-06T21:25:18.979Z,8.00
2023-01-06T21:27:46.011Z,8.00
2023-01-06T21:30:13.334Z,8.00
2023-01-06T21:32:40.326Z,8.00
2023-01-06T21:35:07.432Z,8.00
2023-01-06T21:37:34.400Z,8.00
2023-01-06T21:40:05.513Z,8.00
2023-01-06T21:42:51.136Z,8.00
2023-01-06T21:45:18.185Z,8.00
2023-01-06T21:47:45.215Z,8.00
2023-01-06T21:50:12.800Z,8.00
2023-01-06T21:52:39.773Z,8.00
2023-01-06T21:55:06.880Z,8.00
2023-01-06T21:57:33.919Z,8.00
2023-01-06T22:00:00.904Z,8.00
2023-01-06T22:02:28.025Z,8.00
2023-01-06T22:04:55.137Z,8.00
2023-01-06T22:07:22.181Z,8.00
2023-01-06T22:09:49.235Z,8.00
2023-01-06T22:12:16.221Z,8.00
2023-01-06T22:14:43.411Z,8.00
2023-01-06T22:17:10.451Z,8.00
2023-01-06T22:19:37.564Z,8.00
2023-01-06T22:22:04.527Z,7.90
2023-01-06T22:24:31.503Z,8.00
2023-01-06T22:26:58.467Z,7.90
2023-01-06T22:29:25.426Z,8.00
2023-01-06T22:31:52.386Z,7.90
2023-01-06T22:34:19.441Z,7.90
2023-01-06T22:36:46.398Z,7.90
2023-01-06T22:39:13.402Z,8.00
2023-01-06T22:41:40.430Z,8.00
2023-01-06T22:44:07.445Z,7.90
2023-01-06T22:46:34.505Z,7.90
2023-01-06T22:49:01.513Z,7.90
2023-01-06T22:51:28.607Z,7.90
2023-01-06T22:53:56.825Z,7.90
2023-01-06T22:56:23.874Z,7.90
2023-01-06T22:58:50.976Z,7.90
2023-01-06T23:01:18.091Z,7.90
2023-01-06T23:03:45.248Z,7.90
2023-01-06T23:06:12.971Z,7.90
2023-01-06T23:08:48.127Z,7.90
2023-01-06T23:11:22.638Z,7.90
2023-01-06T23:13:53.672Z,7.90
2023-01-06T23:16:22.198Z,7.90
2023-01-06T23:18:49.321Z,7.90
2023-01-06T23:21:21.690Z,7.90
2023-01-06T23:23:49.140Z,7.90
2023-01-06T23:26:16.968Z,7.80
2023-01-06T23:28:44.045Z,7.80
2023-01-06T23:31:11.960Z,7.80
2023-01-06T23:33:42.911Z,7.80
2023-01-06T23:36:10.467Z,7.80
2023-01-06T23:38:37.482Z,7.80
2023-01-06T23:41:14.363Z,7.80
2023-01-06T23:43:41.427Z,7.80
2023-01-06T23:46:09.438Z,7.80
2023-01-06T23:48:36.508Z,7.80
2023-01-06T23:51:03.639Z,7.80
2023-01-06T23:53:30.833Z,7.80
2023-01-06T23:55:58.532Z,7.80
2023-01-06T23:58:25.732Z,7.80
